createdAt,value
2022-09-15T00:03:02.940Z,8.30
2022-09-15T00:08:05.792Z,7.90
2022-09-15T00:13:08.511Z,7.40
2022-09-15T00:18:11.291Z,7.80
2022-09-15T00:23:15.333Z,7.70
2022-09-15T00:28:22.319Z,8.40
2022-09-15T00:33:25.012Z,8.20
2022-09-15T00:38:27.667Z,7.80
2022-09-15T00:43:55.554Z,9.20
2022-09-15T00:49:07.260Z,9.10
2022-09-15T00:54:22.454Z,9.20
2022-09-15T00:59:27.527Z,8.60
2022-09-15T01:04:30.197Z,8.70
2022-09-15T01:09:52.124Z,8.90
2022-09-15T01:14:54.894Z,8.60
2022-09-15T01:20:23.650Z,7.30
2022-09-15T01:31:01.021Z,8.30
2022-09-15T01:36:45.386Z,7.90
2022-09-15T01:41:57.320Z,8.30
2022-09-15T01:47:04.036Z,8.10
2022-09-15T01:52:06.722Z,8.50
2022-09-15T01:57:09.489Z,9.00
2022-09-15T02:02:16.876Z,8.60
2022-09-15T02:07:31.961Z,8.40
2022-09-15T02:12:52.810Z,9.20
2022-09-15T02:17:55.752Z,9.50
2022-09-15T02:23:26.286Z,8.50
2022-09-15T02:28:31.240Z,8.30
2022-09-15T02:33:37.767Z,8.90
2022-09-15T02:38:45.633Z,9.00
2022-09-15T02:43:49.359Z,8.30
2022-09-15T02:48:53.446Z,8.60
2022-09-15T02:53:56.191Z,8.00
2022-09-15T02:58:58.852Z,8.80
2022-09-15T03:04:02.963Z,8.70
2022-09-15T03:09:07.541Z,8.60
2022-09-15T03:14:10.288Z,8.10
2022-09-15T03:19:12.993Z,8.20
2022-09-15T03:24:15.628Z,8.60
2022-09-15T03:29:18.334Z,8.10
2022-09-15T03:34:21.007Z,8.60
2022-09-15T03:39:24.486Z,8.30
2022-09-15T03:44:27.485Z,9.00
2022-09-15T03:49:30.231Z,8.70
2022-09-15T03:54:32.954Z,9.00
2022-09-15T03:59:35.617Z,8.20
2022-09-15T04:04:38.418Z,8.40
2022-09-15T04:09:42.008Z,8.30
2022-09-15T04:14:44.991Z,8.40
2022-09-15T04:19:48.178Z,8.70
2022-09-15T04:24:50.949Z,8.10
2022-09-15T04:29:53.915Z,8.90
2022-09-15T04:34:56.642Z,8.10
2022-09-15T04:39:59.721Z,8.80
2022-09-15T04:45:02.596Z,8.40
2022-09-15T04:50:06.063Z,8.40
2022-09-15T04:55:09.342Z,9.60
2022-09-15T05:00:13.487Z,8.70
2022-09-15T05:05:16.377Z,10.00
2022-09-15T05:10:20.097Z,8.80
2022-09-15T05:15:24.195Z,8.70
2022-09-15T05:20:26.961Z,8.80
2022-09-15T05:25:30.413Z,7.40
2022-09-15T05:30:38.799Z,7.30
2022-09-15T05:35:56.690Z,7.10
2022-09-15T05:41:07.752Z,7.00
2022-09-15T05:46:11.157Z,6.60
2022-09-15T05:51:14.484Z,6.60
2022-09-15T05:56:17.706Z,6.40
2022-09-15T06:01:26.511Z,6.90
2022-09-15T06:06:30.688Z,6.10
2022-09-15T06:11:36.576Z,6.30
2022-09-15T06:16:39.323Z,6.10
2022-09-15T06:21:42.162Z,6.70
2022-09-15T06:26:45.150Z,6.10
2022-09-15T06:31:48.370Z,5.90
2022-09-15T06:36:51.087Z,6.30
2022-09-15T06:42:02.207Z,5.70
2022-09-15T06:47:07.334Z,5.50
2022-09-15T06:52:10.029Z,5.00
2022-09-15T06:57:13.281Z,4.90
2022-09-15T07:02:16.035Z,4.60
2022-09-15T07:07:18.931Z,4.50
2022-09-15T07:12:21.638Z,3.70
2022-09-15T07:17:26.304Z,3.80
2022-09-15T07:22:28.992Z,4.20
2022-09-15T07:27:31.970Z,3.90
2022-09-15T07:32:34.641Z,3.40
2022-09-15T07:37:37.366Z,3.10
2022-09-15T07:42:44.460Z,3.40
2022-09-15T07:47:47.241Z,3.30
2022-09-15T07:52:49.899Z,3.20
2022-09-15T07:58:01.756Z,3.00
2022-09-15T08:03:04.507Z,2.80
2022-09-15T08:08:07.245Z,3.10
2022-09-15T08:13:10.073Z,2.70
2022-09-15T08:18:13.065Z,2.80
2022-09-15T08:23:15.874Z,2.90
2022-09-15T08:28:18.816Z,2.70
2022-09-15T08:33:21.451Z,2.40
2022-09-15T08:38:24.156Z,2.60
2022-09-15T08:43:28.651Z,2.70
2022-09-15T08:49:03.104Z,2.10
2022-09-15T08:54:11.770Z,2.40
2022-09-15T08:59:16.217Z,2.20
2022-09-15T09:04:33.803Z,2.20
2022-09-15T09:09:47.369Z,2.20
2022-09-15T09:15:14.146Z,2.70
2022-09-15T09:20:36.904Z,2.10
2022-09-15T09:25:42.046Z,1.60
2022-09-15T09:30:44.773Z,1.50
2022-09-15T09:35:51.752Z,1.90
2022-09-15T09:40:58.579Z,1.90
2022-09-15T09:46:15.031Z,1.90
2022-09-15T09:51:40.068Z,1.60
2022-09-15T09:56:47.308Z,1.40
2022-09-15T10:02:11.996Z,1.60
2022-09-15T10:07:17.752Z,1.90
2022-09-15T10:12:30.508Z,1.70
2022-09-15T10:17:36.340Z,1.60
2022-09-15T10:22:39.916Z,4.40
2022-09-15T10:27:43.204Z,2.50
2022-09-15T10:32:45.955Z,1.30
2022-09-15T10:38:12.469Z,1.10
2022-09-15T10:43:46.154Z,1.20
2022-09-15T10:49:18.643Z,1.20
2022-09-15T10:55:03.062Z,1.30
2022-09-15T11:00:12.704Z,1.50
2022-09-15T11:05:42.502Z,1.60
2022-09-15T11:11:00.402Z,1.60
2022-09-15T11:21:46.384Z,1.70
2022-09-15T11:27:07.185Z,1.20
2022-09-15T11:32:15.180Z,1.40
2022-09-15T11:37:24.284Z,2.10
2022-09-15T11:42:52.499Z,1.50
2022-09-15T11:53:36.944Z,1.50
2022-09-15T11:58:48.921Z,1.60
2022-09-15T12:04:04.065Z,1.60
2022-09-15T12:09:07.976Z,1.60
2022-09-15T12:14:16.804Z,1.80
2022-09-15T12:20:12.858Z,2.00
2022-09-15T12:25:24.803Z,1.70
2022-09-15T12:30:42.887Z,1.70
2022-09-15T12:35:45.931Z,2.00
2022-09-15T12:40:57.331Z,2.10
2022-09-15T12:46:00.739Z,2.00
2022-09-15T12:51:06.145Z,1.60
2022-09-15T12:56:11.765Z,1.50
2022-09-15T13:01:24.565Z,1.90
2022-09-15T13:06:34.313Z,1.90
2022-09-15T13:11:41.164Z,1.20
2022-09-15T13:17:04.255Z,1.60
2022-09-15T13:22:31.481Z,1.50
2022-09-15T13:27:58.304Z,2.00
2022-09-15T13:33:26.222Z,1.70
2022-09-15T13:38:46.195Z,2.00
2022-09-15T13:44:26.826Z,1.80
2022-09-15T13:50:29.518Z,1.80
2022-09-15T13:55:36.820Z,1.70
2022-09-15T14:00:47.958Z,1.90
2022-09-15T14:05:51.667Z,1.60
2022-09-15T14:11:01.181Z,1.50
2022-09-15T14:16:20.925Z,2.80
2022-09-15T14:21:29.449Z,1.80
2022-09-15T14:26:35.456Z,1.60
2022-09-15T14:31:41.058Z,1.60
2022-09-15T14:36:43.877Z,1.70
2022-09-15T14:41:47.060Z,1.50
2022-09-15T14:46:49.932Z,1.80
2022-09-15T14:51:53.604Z,1.50
2022-09-15T14:57:01.557Z,1.50
2022-09-15T15:02:43.444Z,1.70
2022-09-15T15:07:46.271Z,1.80
2022-09-15T15:12:55.060Z,1.80
2022-09-15T15:17:58.428Z,1.60
2022-09-15T15:23:15.537Z,1.80
2022-09-15T15:28:36.080Z,1.70
2022-09-15T15:33:55.874Z,1.80
2022-09-15T15:39:01.540Z,1.70
2022-09-15T15:44:09.644Z,1.50
2022-09-15T15:49:13.363Z,2.10
2022-09-15T15:54:16.267Z,1.80
2022-09-15T15:59:19.285Z,2.10
2022-09-15T16:04:22.222Z,1.70
2022-09-15T16:09:24.920Z,1.80
2022-09-15T16:14:27.639Z,1.70
2022-09-15T16:19:30.999Z,2.00
2022-09-15T16:24:33.679Z,2.00
2022-09-15T16:29:38.171Z,2.00
2022-09-15T16:34:40.993Z,2.00
2022-09-15T16:39:43.753Z,2.50
2022-09-15T16:44:46.761Z,2.00
2022-09-15T16:49:51.315Z,2.20
2022-09-15T16:54:56.466Z,2.00
2022-09-15T16:59:59.982Z,2.20
2022-09-15T17:05:02.647Z,2.00
2022-09-15T17:10:06.818Z,2.10
2022-09-15T17:15:30.881Z,2.50
2022-09-15T17:20:38.585Z,2.40
2022-09-15T17:25:48.914Z,2.00
2022-09-15T17:30:57.847Z,2.30
2022-09-15T17:36:00.862Z,2.40
2022-09-15T17:41:03.667Z,3.10
2022-09-15T17:46:06.933Z,2.80
2022-09-15T17:51:17.481Z,2.80
2022-09-15T17:56:20.229Z,2.80
2022-09-15T18:01:23.028Z,2.80
2022-09-15T18:06:25.738Z,3.30
2022-09-15T18:11:28.882Z,2.60
2022-09-15T18:16:31.535Z,3.20
2022-09-15T18:21:34.324Z,3.50
2022-09-15T18:26:37.396Z,3.00
2022-09-15T18:31:40.620Z,3.80
2022-09-15T18:36:43.271Z,3.60
2022-09-15T18:41:46.049Z,3.30
2022-09-15T18:46:48.878Z,3.50
2022-09-15T18:51:52.202Z,3.80
2022-09-15T18:56:55.015Z,3.70
2022-09-15T19:01:57.837Z,3.50
2022-09-15T19:07:00.620Z,2.90
2022-09-15T19:12:04.199Z,3.60
2022-09-15T19:17:07.026Z,3.50
2022-09-15T19:22:10.388Z,3.70
2022-09-15T19:27:13.133Z,3.70
2022-09-15T19:32:19.971Z,3.90
2022-09-15T19:37:22.922Z,3.80
2022-09-15T19:42:26.269Z,3.60
2022-09-15T19:47:28.958Z,3.10
2022-09-15T19:52:31.811Z,3.60
2022-09-15T19:57:34.623Z,3.90
2022-09-15T20:02:37.433Z,3.90
2022-09-15T20:07:40.261Z,3.10
2022-09-15T20:12:43.024Z,5.10
2022-09-15T20:17:45.703Z,8.70
2022-09-15T20:22:48.577Z,8.30
2022-09-15T20:27:54.614Z,9.50
2022-09-15T20:32:57.313Z,5.30
2022-09-15T20:37:59.989Z,4.20
2022-09-15T20:43:02.638Z,3.60
2022-09-15T20:48:05.338Z,3.60
2022-09-15T20:53:08.117Z,3.20
2022-09-15T20:58:10.997Z,3.00
2022-09-15T21:03:15.262Z,3.30
2022-09-15T21:08:17.990Z,3.70
2022-09-15T21:13:24.195Z,3.00
2022-09-15T21:18:28.691Z,3.00
2022-09-15T21:23:55.107Z,3.50
2022-09-15T21:28:57.954Z,3.30
2022-09-15T21:34:00.574Z,3.20
2022-09-15T21:39:03.634Z,3.50
2022-09-15T21:44:06.362Z,3.40
2022-09-15T21:49:09.220Z,3.60
2022-09-15T21:54:11.970Z,3.50
2022-09-15T21:59:33.233Z,3.90
2022-09-15T22:04:35.955Z,3.10
2022-09-15T22:09:39.935Z,3.80
2022-09-15T22:14:42.671Z,3.40
2022-09-15T22:19:45.388Z,3.40
2022-09-15T22:24:48.226Z,3.20
2022-09-15T22:29:50.889Z,3.60
2022-09-15T22:34:54.812Z,3.50
2022-09-15T22:39:59.207Z,3.40
2022-09-15T22:45:02.272Z,3.60
2022-09-15T22:50:05.219Z,3.50
2022-09-15T22:55:08.449Z,3.80
2022-09-15T23:00:12.387Z,3.40
2022-09-15T23:05:15.119Z,4.30
2022-09-15T23:10:18.236Z,4.20
2022-09-15T23:15:20.903Z,4.60
2022-09-15T23:20:23.616Z,4.70
2022-09-15T23:25:26.316Z,4.60
2022-09-15T23:30:29.163Z,4.00
2022-09-15T23:35:31.901Z,4.00
2022-09-15T23:40:34.600Z,11.00
2022-09-15T23:45:37.573Z,11.00
2022-09-15T23:50:40.667Z,10.00
2022-09-15T23:55:43.550Z,10.60
